createdAt,value
2022-11-16T00:00:29.919Z,17.76
2022-11-16T00:01:36.408Z,17.55
2022-11-16T00:02:38.378Z,17.96
2022-11-16T00:03:41.236Z,18.34
2022-11-16T00:04:43.161Z,18.40
2022-11-16T00:05:44.994Z,17.17
2022-11-16T00:06:49.832Z,16.51
2022-11-16T00:07:51.711Z,17.11
2022-11-16T00:09:18.922Z,17.56
2022-11-16T00:10:21.021Z,16.89
2022-11-16T00:11:23.016Z,16.33
2022-11-16T00:12:24.860Z,17.34
2022-11-16T00:13:26.854Z,16.21
2022-11-16T00:14:34.113Z,15.75
2022-11-16T00:15:35.985Z,16.27
2022-11-16T00:16:38.986Z,16.18
2022-11-16T00:17:40.866Z,15.91
2022-11-16T00:18:44.038Z,16.00
2022-11-16T00:19:47.980Z,15.93
2022-11-16T00:20:51.002Z,16.67
2022-11-16T00:21:53.648Z,16.68
2022-11-16T00:22:55.535Z,16.81
2022-11-16T00:23:57.804Z,17.37
2022-11-16T00:24:59.641Z,16.95
2022-11-16T00:26:06.330Z,18.38
2022-11-16T00:27:08.290Z,17.71
2022-11-16T00:28:11.347Z,16.92
2022-11-16T00:29:21.837Z,16.72
2022-11-16T00:30:23.723Z,16.88
2022-11-16T00:31:26.237Z,16.32
2022-11-16T00:32:28.258Z,16.89
2022-11-16T00:33:30.513Z,15.72
2022-11-16T00:34:32.665Z,16.86
2022-11-16T00:35:39.763Z,15.90
2022-11-16T00:36:41.777Z,16.27
2022-11-16T00:37:43.675Z,16.61
2022-11-16T00:38:45.752Z,15.87
2022-11-16T00:39:48.433Z,16.48
2022-11-16T00:40:50.561Z,16.28
2022-11-16T00:41:52.490Z,16.49
2022-11-16T00:42:54.467Z,17.39
2022-11-16T00:43:56.837Z,16.74
2022-11-16T00:44:58.813Z,16.07
2022-11-16T00:46:00.920Z,15.62
2022-11-16T00:47:04.027Z,15.58
2022-11-16T00:48:06.688Z,15.09
2022-11-16T00:49:09.057Z,14.94
2022-11-16T00:50:11.119Z,14.87
2022-11-16T00:51:13.355Z,16.13
2022-11-16T00:52:16.862Z,15.39
2022-11-16T00:53:20.723Z,14.87
2022-11-16T00:54:22.773Z,15.34
2022-11-16T00:55:25.323Z,16.03
2022-11-16T00:56:27.483Z,15.40
2022-11-16T00:57:29.348Z,15.68
2022-11-16T00:58:31.800Z,15.17
2022-11-16T00:59:38.191Z,16.03
2022-11-16T01:00:41.277Z,15.31
2022-11-16T01:01:43.228Z,16.03
2022-11-16T01:02:45.265Z,15.75
2022-11-16T01:03:48.131Z,15.88
2022-11-16T01:04:50.299Z,14.64
2022-11-16T01:05:52.199Z,15.46
2022-11-16T01:06:54.174Z,15.01
2022-11-16T01:07:59.369Z,14.29
2022-11-16T01:09:01.665Z,15.38
2022-11-16T01:10:14.274Z,15.33
2022-11-16T01:11:36.626Z,15.26
2022-11-16T01:12:38.724Z,16.02
2022-11-16T01:13:40.578Z,15.72
2022-11-16T01:14:45.354Z,15.89
2022-11-16T01:15:48.448Z,15.26
2022-11-16T01:16:50.838Z,14.95
2022-11-16T01:17:54.810Z,14.53
2022-11-16T01:18:56.788Z,14.03
2022-11-16T01:19:58.869Z,14.22
2022-11-16T01:21:00.797Z,14.27
2022-11-16T01:22:02.808Z,14.87
2022-11-16T01:23:04.933Z,14.89
2022-11-16T01:24:06.918Z,15.46
2022-11-16T01:25:10.361Z,13.65
2022-11-16T01:26:13.053Z,14.08
2022-11-16T01:27:16.389Z,14.51
2022-11-16T01:28:19.808Z,14.26
2022-11-16T01:29:25.870Z,14.85
2022-11-16T01:30:31.462Z,14.14
2022-11-16T01:31:43.389Z,15.28
2022-11-16T01:32:45.338Z,15.14
2022-11-16T01:33:47.760Z,14.46
2022-11-16T01:34:55.208Z,13.66
2022-11-16T01:36:03.481Z,14.12
2022-11-16T01:37:05.455Z,14.12
2022-11-16T01:38:10.243Z,14.58
2022-11-16T01:39:14.126Z,14.27
2022-11-16T01:40:21.184Z,14.26
2022-11-16T01:41:26.056Z,12.62
2022-11-16T01:42:33.800Z,13.54
2022-11-16T01:43:58.727Z,13.80
2022-11-16T01:45:16.827Z,13.93
2022-11-16T01:46:19.673Z,15.00
2022-11-16T01:47:22.259Z,14.14
2022-11-16T01:48:30.366Z,14.48
2022-11-16T01:49:36.337Z,13.82
2022-11-16T01:50:39.668Z,13.18
2022-11-16T01:51:47.790Z,13.76
2022-11-16T01:53:00.852Z,13.38
2022-11-16T01:54:12.560Z,13.45
2022-11-16T01:55:27.752Z,13.23
2022-11-16T01:56:44.550Z,13.94
2022-11-16T01:57:59.140Z,13.50
2022-11-16T01:59:03.313Z,12.97
2022-11-16T02:00:09.462Z,13.05
2022-11-16T02:01:19.947Z,13.18
2022-11-16T02:02:24.721Z,12.54
2022-11-16T02:03:26.999Z,12.79
2022-11-16T02:04:29.903Z,13.86
2022-11-16T02:06:03.974Z,13.44
2022-11-16T02:07:26.943Z,13.78
2022-11-16T02:09:10.865Z,13.24
2022-11-16T02:10:55.017Z,12.77
2022-11-16T02:12:22.875Z,12.71
2022-11-16T02:13:46.511Z,13.52
2022-11-16T02:15:16.171Z,12.90
2022-11-16T02:16:53.189Z,13.74
2022-11-16T02:18:08.977Z,12.96
2022-11-16T02:19:37.222Z,13.94
2022-11-16T02:21:00.434Z,14.03
2022-11-16T02:22:25.644Z,14.01
2022-11-16T02:23:43.513Z,14.72
2022-11-16T02:25:08.280Z,14.21
2022-11-16T02:26:39.251Z,14.95
2022-11-16T02:28:14.315Z,13.80
2022-11-16T02:29:34.453Z,12.96
2022-11-16T02:30:38.211Z,14.56
2022-11-16T02:31:51.784Z,14.61
2022-11-16T02:33:04.854Z,13.64
2022-11-16T02:34:13.055Z,14.19
2022-11-16T02:35:20.732Z,14.59
2022-11-16T02:36:25.634Z,14.89
2022-11-16T02:37:34.806Z,14.15
2022-11-16T02:38:45.288Z,15.17
2022-11-16T02:39:53.292Z,15.78
2022-11-16T02:41:05.790Z,14.86
2022-11-16T02:42:15.341Z,15.26
2022-11-16T02:43:29.966Z,15.41
2022-11-16T02:44:40.147Z,14.44
2022-11-16T02:45:50.567Z,15.32
2022-11-16T02:47:00.230Z,14.80
2022-11-16T02:48:11.225Z,15.62
2022-11-16T02:49:19.530Z,15.29
2022-11-16T02:50:23.908Z,16.74
2022-11-16T02:51:29.599Z,16.55
2022-11-16T02:52:32.594Z,15.05
2022-11-16T02:53:42.940Z,14.75
2022-11-16T02:54:45.190Z,15.73
2022-11-16T02:55:47.872Z,16.70
2022-11-16T02:57:02.186Z,15.38
2022-11-16T02:58:09.371Z,14.95
2022-11-16T02:59:16.465Z,15.56
2022-11-16T03:00:36.008Z,15.57
2022-11-16T03:01:51.309Z,15.68
2022-11-16T03:03:01.792Z,14.90
2022-11-16T03:04:33.006Z,14.67
2022-11-16T03:05:53.105Z,13.85
2022-11-16T03:06:58.470Z,13.64
2022-11-16T03:08:17.675Z,13.71
2022-11-16T03:09:27.601Z,14.40
2022-11-16T03:10:49.264Z,13.51
2022-11-16T03:11:59.841Z,14.03
2022-11-16T03:13:08.391Z,13.64
2022-11-16T03:14:16.889Z,13.54
2022-11-16T03:15:18.901Z,13.83
2022-11-16T03:16:28.614Z,12.78
2022-11-16T03:17:38.790Z,13.02
2022-11-16T03:18:46.549Z,12.32
2022-11-16T03:20:07.762Z,12.24
2022-11-16T03:21:25.603Z,12.37
2022-11-16T03:22:54.801Z,12.78
2022-11-16T03:23:57.660Z,12.62
2022-11-16T03:24:59.824Z,12.49
2022-11-16T03:26:09.344Z,12.42
2022-11-16T03:27:35.251Z,12.70
2022-11-16T03:28:52.307Z,12.57
2022-11-16T03:30:10.872Z,12.74
2022-11-16T03:31:32.918Z,12.54
2022-11-16T03:32:51.323Z,12.93
2022-11-16T03:34:01.034Z,12.19
2022-11-16T03:35:12.845Z,12.60
2022-11-16T03:36:34.116Z,11.40
2022-11-16T03:37:39.657Z,11.59
2022-11-16T03:38:47.863Z,11.58
2022-11-16T03:39:53.387Z,11.43
2022-11-16T03:41:01.912Z,11.13
2022-11-16T03:42:09.365Z,11.80
2022-11-16T03:43:11.948Z,11.62
2022-11-16T03:44:17.819Z,11.63
2022-11-16T03:45:21.329Z,11.60
2022-11-16T03:46:24.352Z,11.14
2022-11-16T03:47:26.186Z,10.85
2022-11-16T03:48:38.100Z,11.00
2022-11-16T03:49:48.200Z,10.78
2022-11-16T03:50:52.688Z,10.77
2022-11-16T03:51:54.767Z,10.87
2022-11-16T03:52:57.367Z,10.38
2022-11-16T03:53:59.345Z,10.80
2022-11-16T03:55:01.224Z,10.49
2022-11-16T03:56:04.301Z,10.45
2022-11-16T03:57:06.849Z,11.19
2022-11-16T03:58:08.600Z,11.22
2022-11-16T03:59:10.500Z,10.40
2022-11-16T04:00:12.847Z,9.80
2022-11-16T04:01:17.531Z,10.24
2022-11-16T04:02:19.794Z,10.09
2022-11-16T04:03:22.991Z,10.21
2022-11-16T04:04:43.615Z,10.81
2022-11-16T04:06:03.940Z,10.44
2022-11-16T04:07:24.335Z,11.59
2022-11-16T04:08:45.013Z,10.79
2022-11-16T04:10:05.743Z,10.04
2022-11-16T04:11:31.721Z,9.80
2022-11-16T04:12:52.353Z,9.83
2022-11-16T04:14:12.856Z,9.61
2022-11-16T04:15:34.299Z,11.04
2022-11-16T04:16:54.731Z,11.37
2022-11-16T04:18:15.012Z,10.03
2022-11-16T04:19:35.414Z,9.73
2022-11-16T04:20:55.524Z,9.96
2022-11-16T04:22:23.298Z,10.22
2022-11-16T04:23:43.809Z,10.01
2022-11-16T04:24:54.714Z,10.67
2022-11-16T04:25:57.528Z,9.84
2022-11-16T04:27:24.606Z,10.66
2022-11-16T04:28:32.081Z,9.94
2022-11-16T04:29:37.177Z,10.44
2022-11-16T04:31:12.754Z,9.86
2022-11-16T04:32:34.854Z,9.68
2022-11-16T04:33:55.895Z,10.17
2022-11-16T04:35:16.736Z,10.03
2022-11-16T04:36:37.229Z,9.78
2022-11-16T04:37:52.716Z,9.96
2022-11-16T04:39:03.142Z,10.37
2022-11-16T04:40:05.472Z,10.87
2022-11-16T04:41:27.317Z,10.46
2022-11-16T04:42:29.087Z,11.23
2022-11-16T04:43:30.846Z,11.14
2022-11-16T04:44:55.597Z,10.49
2022-11-16T04:46:17.919Z,10.76
2022-11-16T04:47:19.721Z,10.37
2022-11-16T04:48:21.999Z,10.55
2022-11-16T04:49:26.207Z,11.04
2022-11-16T04:50:28.259Z,10.94
2022-11-16T04:51:30.428Z,10.65
2022-11-16T04:52:32.490Z,11.78
2022-11-16T04:53:34.451Z,11.27
2022-11-16T04:54:42.671Z,10.90
2022-11-16T04:55:44.780Z,10.95
2022-11-16T04:56:46.970Z,10.39
2022-11-16T04:57:48.743Z,11.22
2022-11-16T04:58:51.228Z,11.64
2022-11-16T04:59:53.310Z,11.05
2022-11-16T05:00:55.183Z,11.31
2022-11-16T05:02:09.284Z,12.06
2022-11-16T05:03:18.904Z,11.31
2022-11-16T05:04:20.785Z,10.81
2022-11-16T05:05:22.749Z,11.84
2022-11-16T05:06:25.182Z,11.64
2022-11-16T05:07:27.017Z,11.29
2022-11-16T05:08:35.508Z,11.51
2022-11-16T05:09:51.067Z,11.08
2022-11-16T05:10:52.919Z,10.99
2022-11-16T05:11:54.713Z,11.13
2022-11-16T05:12:57.674Z,10.77
2022-11-16T05:13:59.798Z,11.16
2022-11-16T05:15:01.987Z,11.42
2022-11-16T05:16:05.957Z,10.84
2022-11-16T05:17:07.995Z,10.77
2022-11-16T05:18:09.873Z,11.11
2022-11-16T05:19:30.097Z,10.89
2022-11-16T05:20:51.142Z,11.19
2022-11-16T05:21:52.950Z,11.56
2022-11-16T05:22:56.721Z,11.14
2022-11-16T05:24:18.461Z,11.03
2022-11-16T05:25:20.310Z,11.13
2022-11-16T05:26:22.236Z,11.52
2022-11-16T05:27:26.349Z,11.17
2022-11-16T05:28:28.273Z,11.36
2022-11-16T05:29:31.088Z,11.04
2022-11-16T05:30:32.868Z,11.50
2022-11-16T05:31:40.139Z,10.74
2022-11-16T05:32:43.451Z,10.63
2022-11-16T05:33:45.388Z,10.96
2022-11-16T05:34:48.509Z,10.50
2022-11-16T05:35:51.663Z,10.81
2022-11-16T05:36:54.463Z,10.06
2022-11-16T05:37:56.653Z,10.39
2022-11-16T05:38:58.403Z,9.90
2022-11-16T05:40:01.598Z,9.98
2022-11-16T05:41:12.186Z,10.18
2022-11-16T05:42:14.114Z,10.62
2022-11-16T05:43:16.123Z,11.24
2022-11-16T05:44:25.082Z,11.14
2022-11-16T05:45:27.088Z,10.66
2022-11-16T05:46:28.918Z,9.85
2022-11-16T05:47:33.400Z,10.42
2022-11-16T05:48:35.991Z,10.59
2022-11-16T05:49:38.695Z,10.10
2022-11-16T05:50:42.917Z,9.95
2022-11-16T05:51:54.208Z,10.80
2022-11-16T05:52:56.035Z,10.24
2022-11-16T05:53:57.903Z,9.98
2022-11-16T05:55:00.907Z,10.06
2022-11-16T05:56:03.144Z,9.74
2022-11-16T05:57:05.573Z,9.64
2022-11-16T05:58:07.411Z,10.00
2022-11-16T05:59:15.229Z,10.33
2022-11-16T06:00:18.969Z,10.81
2022-11-16T06:01:22.488Z,10.18
2022-11-16T06:02:24.686Z,10.17
2022-11-16T06:03:29.566Z,9.81
2022-11-16T06:04:32.526Z,9.81
2022-11-16T06:05:40.241Z,10.31
2022-11-16T06:06:43.061Z,10.29
2022-11-16T06:07:46.766Z,8.95
2022-11-16T06:08:48.573Z,9.33
2022-11-16T06:09:53.578Z,10.01
2022-11-16T06:10:55.931Z,10.06
2022-11-16T06:11:57.916Z,10.53
2022-11-16T06:12:59.691Z,10.10
2022-11-16T06:14:01.453Z,9.75
2022-11-16T06:15:03.457Z,9.51
2022-11-16T06:16:05.967Z,9.53
2022-11-16T06:17:08.708Z,9.82
2022-11-16T06:18:10.736Z,10.51
2022-11-16T06:19:12.583Z,9.89
2022-11-16T06:20:14.625Z,10.05
2022-11-16T06:21:19.347Z,9.56
2022-11-16T06:22:21.160Z,9.91
2022-11-16T06:23:23.603Z,9.88
2022-11-16T06:24:26.043Z,9.83
2022-11-16T06:25:28.012Z,9.41
2022-11-16T06:26:29.739Z,9.06
2022-11-16T06:27:31.495Z,9.44
2022-11-16T06:28:34.514Z,10.91
2022-11-16T06:29:36.703Z,11.37
2022-11-16T06:30:40.581Z,10.46
2022-11-16T06:31:42.694Z,10.02
2022-11-16T06:32:45.460Z,10.60
2022-11-16T06:33:47.248Z,10.01
2022-11-16T06:34:55.883Z,9.49
2022-11-16T06:35:57.958Z,10.34
2022-11-16T06:37:00.122Z,10.02
2022-11-16T06:38:01.916Z,9.61
2022-11-16T06:39:03.840Z,9.30
2022-11-16T06:40:11.014Z,8.92
2022-11-16T06:41:15.995Z,8.80
2022-11-16T06:42:20.197Z,9.11
2022-11-16T06:43:23.262Z,9.73
2022-11-16T06:44:25.087Z,9.29
2022-11-16T06:45:31.825Z,9.74
2022-11-16T06:46:34.679Z,8.46
2022-11-16T06:47:37.361Z,9.40
2022-11-16T06:48:39.491Z,9.64
2022-11-16T06:49:44.368Z,9.57
2022-11-16T06:50:52.506Z,9.99
2022-11-16T06:51:54.860Z,9.91
2022-11-16T06:52:56.624Z,10.16
2022-11-16T06:53:58.502Z,10.16
2022-11-16T06:55:02.407Z,9.93
2022-11-16T06:56:07.488Z,9.95
2022-11-16T06:57:15.798Z,11.03
2022-11-16T06:58:18.200Z,10.41
2022-11-16T06:59:20.052Z,9.55
2022-11-16T07:00:22.073Z,9.17
2022-11-16T07:01:24.624Z,9.13
2022-11-16T07:02:29.434Z,9.28
2022-11-16T07:03:32.469Z,8.99
2022-11-16T07:04:36.158Z,8.95
2022-11-16T07:05:40.907Z,9.38
2022-11-16T07:06:45.272Z,9.65
2022-11-16T07:07:47.947Z,10.36
2022-11-16T07:08:50.330Z,10.10
2022-11-16T07:09:54.362Z,8.82
2022-11-16T07:10:59.027Z,9.15
2022-11-16T07:12:04.993Z,8.40
2022-11-16T07:13:10.303Z,8.47
2022-11-16T07:14:13.290Z,7.79
2022-11-16T07:15:17.583Z,8.17
2022-11-16T07:16:21.076Z,8.62
2022-11-16T07:17:30.037Z,9.14
2022-11-16T07:18:35.193Z,8.52
2022-11-16T07:19:37.315Z,8.83
2022-11-16T07:20:39.207Z,8.61
2022-11-16T07:21:41.059Z,8.16
2022-11-16T07:22:47.026Z,7.97
2022-11-16T07:23:49.327Z,8.64
2022-11-16T07:24:53.870Z,8.52
2022-11-16T07:26:00.216Z,7.80
2022-11-16T07:27:08.878Z,8.17
2022-11-16T07:28:11.794Z,8.92
2022-11-16T07:29:15.367Z,7.79
2022-11-16T07:30:21.276Z,7.75
2022-11-16T07:31:31.893Z,8.35
2022-11-16T07:32:59.302Z,7.60
2022-11-16T07:34:21.226Z,7.87
2022-11-16T07:35:48.628Z,8.50
2022-11-16T07:36:50.919Z,7.48
2022-11-16T07:37:52.774Z,8.06
2022-11-16T07:38:54.721Z,8.65
2022-11-16T07:39:56.513Z,9.28
2022-11-16T07:41:06.415Z,8.39
2022-11-16T07:42:12.314Z,8.75
2022-11-16T07:43:29.509Z,8.97
2022-11-16T07:45:20.992Z,10.02
2022-11-16T07:46:45.873Z,10.05
2022-11-16T07:47:52.330Z,9.13
2022-11-16T07:49:01.211Z,10.15
2022-11-16T07:50:21.503Z,9.91
2022-11-16T07:51:23.852Z,9.38
2022-11-16T07:52:38.295Z,9.42
2022-11-16T07:53:55.861Z,9.11
2022-11-16T07:54:57.738Z,10.14
2022-11-16T07:56:01.849Z,9.76
2022-11-16T07:57:04.059Z,10.02
2022-11-16T07:58:05.960Z,11.07
2022-11-16T07:59:08.960Z,10.76
2022-11-16T08:00:14.093Z,11.63
2022-11-16T08:01:19.064Z,11.16
2022-11-16T08:02:21.245Z,10.76
2022-11-16T08:03:24.927Z,11.21
2022-11-16T08:04:28.011Z,11.21
2022-11-16T08:05:30.135Z,11.19
2022-11-16T08:06:32.206Z,11.15
2022-11-16T08:07:35.554Z,11.02
2022-11-16T08:08:38.155Z,10.16
2022-11-16T08:09:40.782Z,10.66
2022-11-16T08:10:43.507Z,9.80
2022-11-16T08:11:47.098Z,9.39
2022-11-16T08:12:49.174Z,10.12
2022-11-16T08:13:53.503Z,9.71
2022-11-16T08:14:55.414Z,9.61
2022-11-16T08:16:11.618Z,9.34
2022-11-16T08:17:13.507Z,9.29
2022-11-16T08:18:15.378Z,9.75
2022-11-16T08:19:17.233Z,9.35
2022-11-16T08:20:19.016Z,9.02
2022-11-16T08:21:22.560Z,8.55
2022-11-16T08:22:24.652Z,9.32
2022-11-16T08:23:28.676Z,8.62
2022-11-16T08:24:30.433Z,8.45
2022-11-16T08:25:32.356Z,9.13
2022-11-16T08:26:34.949Z,9.12
2022-11-16T08:27:40.768Z,8.05
2022-11-16T08:28:44.717Z,8.31
2022-11-16T08:29:46.645Z,9.13
2022-11-16T08:30:53.665Z,8.80
2022-11-16T08:31:56.248Z,9.01
2022-11-16T08:32:58.374Z,8.68
2022-11-16T08:34:00.937Z,9.42
2022-11-16T08:35:03.130Z,9.44
2022-11-16T08:36:13.763Z,9.56
2022-11-16T08:37:16.737Z,8.83
2022-11-16T08:38:20.191Z,9.36
2022-11-16T08:39:22.066Z,9.23
2022-11-16T08:40:24.578Z,8.65
2022-11-16T08:41:26.516Z,9.10
2022-11-16T08:42:28.634Z,8.79
2022-11-16T08:43:31.057Z,9.55
2022-11-16T08:44:32.799Z,8.71
2022-11-16T08:45:38.347Z,8.95
2022-11-16T08:46:40.382Z,9.01
2022-11-16T08:48:03.248Z,9.04
2022-11-16T08:49:06.273Z,8.49
2022-11-16T08:50:08.346Z,9.25
2022-11-16T08:51:20.151Z,9.56
2022-11-16T08:52:27.795Z,9.67
2022-11-16T08:53:29.877Z,9.35
2022-11-16T08:54:32.202Z,8.96
2022-11-16T08:55:34.018Z,8.91
2022-11-16T08:56:35.873Z,9.08
2022-11-16T08:57:37.969Z,9.45
2022-11-16T08:58:44.333Z,8.98
2022-11-16T08:59:47.293Z,8.82
2022-11-16T09:00:49.277Z,9.11
2022-11-16T09:01:51.174Z,8.01
2022-11-16T09:02:52.942Z,7.98
2022-11-16T09:03:55.154Z,8.52
2022-11-16T09:04:57.172Z,9.03
2022-11-16T09:05:59.502Z,9.06
2022-11-16T09:07:01.284Z,8.96
2022-11-16T09:08:03.114Z,8.89
2022-11-16T09:09:04.997Z,8.40
2022-11-16T09:10:07.592Z,8.18
2022-11-16T09:11:12.503Z,8.63
2022-11-16T09:12:14.247Z,8.39
2022-11-16T09:13:15.950Z,8.28
2022-11-16T09:14:17.871Z,8.84
2022-11-16T09:15:20.810Z,8.55
2022-11-16T09:16:23.188Z,8.42
2022-11-16T09:17:24.909Z,9.34
2022-11-16T09:18:27.983Z,8.50
2022-11-16T09:19:29.679Z,8.38
2022-11-16T09:20:31.390Z,8.33
2022-11-16T09:21:33.132Z,7.79
2022-11-16T09:22:35.189Z,7.87
2022-11-16T09:23:37.040Z,8.58
2022-11-16T09:24:38.825Z,8.28
2022-11-16T09:25:40.533Z,7.93
2022-11-16T09:26:42.273Z,8.25
2022-11-16T09:27:43.973Z,8.16
2022-11-16T09:28:46.267Z,8.16
2022-11-16T09:29:48.024Z,8.51
2022-11-16T09:30:51.546Z,7.94
2022-11-16T09:31:54.250Z,8.08
2022-11-16T09:32:58.475Z,8.50
2022-11-16T09:34:00.310Z,7.55
2022-11-16T09:35:02.018Z,7.43
2022-11-16T09:36:07.139Z,8.25
2022-11-16T09:37:09.322Z,8.17
2022-11-16T09:38:13.749Z,7.69
2022-11-16T09:39:30.664Z,8.51
2022-11-16T09:40:37.819Z,8.30
2022-11-16T09:42:03.850Z,8.23
2022-11-16T09:43:44.027Z,8.55
2022-11-16T09:45:07.693Z,8.34
2022-11-16T09:46:27.017Z,9.10
2022-11-16T09:47:49.802Z,8.71
2022-11-16T09:48:58.184Z,8.85
2022-11-16T09:50:04.693Z,8.35
2022-11-16T09:51:12.276Z,7.91
2022-11-16T09:52:27.980Z,8.24
2022-11-16T09:53:42.396Z,8.42
2022-11-16T09:54:47.323Z,8.45
2022-11-16T09:55:53.331Z,8.53
2022-11-16T09:57:02.114Z,8.59
2022-11-16T09:58:15.516Z,8.38
2022-11-16T09:59:51.894Z,8.04
2022-11-16T10:01:06.495Z,7.95
2022-11-16T10:02:31.556Z,8.66
2022-11-16T10:03:43.564Z,8.08
2022-11-16T10:05:14.515Z,8.54
2022-11-16T10:06:22.216Z,7.68
2022-11-16T10:07:33.183Z,7.51
2022-11-16T10:08:43.299Z,7.90
2022-11-16T10:09:46.576Z,7.63
2022-11-16T10:11:30.333Z,7.49
2022-11-16T10:12:31.956Z,7.24
2022-11-16T10:13:52.104Z,7.72
2022-11-16T10:15:24.646Z,7.74
2022-11-16T10:16:56.737Z,8.03
2022-11-16T10:18:25.051Z,7.79
2022-11-16T10:19:43.697Z,7.65
2022-11-16T10:21:04.378Z,8.23
2022-11-16T10:22:20.712Z,8.23
2022-11-16T10:23:31.468Z,8.04
2022-11-16T10:24:57.989Z,8.27
2022-11-16T10:26:21.876Z,7.66
2022-11-16T10:27:51.701Z,7.83
2022-11-16T10:29:16.090Z,7.26
2022-11-16T10:30:20.790Z,7.16
2022-11-16T10:31:51.093Z,7.05
2022-11-16T10:33:11.289Z,6.79
2022-11-16T10:34:25.667Z,7.29
2022-11-16T10:35:53.631Z,6.51
2022-11-16T10:37:06.893Z,6.52
2022-11-16T10:38:15.159Z,6.68
2022-11-16T10:39:20.563Z,6.54
2022-11-16T10:40:27.444Z,6.20
2022-11-16T10:41:41.268Z,5.60
2022-11-16T10:42:54.830Z,5.89
2022-11-16T10:43:59.370Z,6.01
2022-11-16T10:45:17.592Z,6.05
2022-11-16T10:46:34.602Z,5.67
2022-11-16T10:47:46.979Z,5.70
2022-11-16T10:49:18.579Z,6.09
2022-11-16T10:50:32.368Z,6.22
2022-11-16T10:51:34.435Z,6.27
2022-11-16T10:52:36.167Z,6.03
2022-11-16T10:53:41.707Z,6.02
2022-11-16T10:54:44.562Z,5.63
2022-11-16T10:56:06.728Z,6.31
2022-11-16T10:57:14.390Z,7.15
2022-11-16T10:58:16.145Z,7.67
2022-11-16T10:59:21.556Z,7.00
2022-11-16T11:00:39.742Z,6.41
2022-11-16T11:01:47.972Z,5.60
2022-11-16T11:02:49.725Z,7.44
2022-11-16T11:03:51.407Z,7.46
2022-11-16T11:05:17.985Z,4.94
2022-11-16T11:06:25.226Z,5.80
2022-11-16T11:07:43.922Z,6.35
2022-11-16T11:08:45.745Z,6.03
2022-11-16T11:09:53.437Z,5.54
2022-11-16T11:11:03.174Z,4.95
2022-11-16T11:12:34.685Z,5.25
2022-11-16T11:13:36.941Z,5.57
2022-11-16T11:14:38.749Z,5.49
2022-11-16T11:15:43.061Z,5.19
2022-11-16T11:16:44.750Z,5.09
2022-11-16T11:17:48.952Z,5.38
2022-11-16T11:18:51.450Z,5.36
2022-11-16T11:20:16.271Z,4.89
2022-11-16T11:21:22.860Z,5.28
2022-11-16T11:22:25.029Z,5.61
2022-11-16T11:23:27.884Z,5.46
2022-11-16T11:24:44.109Z,5.34
2022-11-16T11:25:58.865Z,5.48
2022-11-16T11:27:01.471Z,5.77
2022-11-16T11:28:23.250Z,6.26
2022-11-16T11:29:32.576Z,6.04
2022-11-16T11:30:35.871Z,6.03
2022-11-16T11:31:52.532Z,5.67
2022-11-16T11:32:54.623Z,6.95
2022-11-16T11:34:10.093Z,5.75
2022-11-16T11:35:31.340Z,6.56
2022-11-16T11:36:43.592Z,5.84
2022-11-16T11:37:54.917Z,5.45
2022-11-16T11:39:26.329Z,5.23
2022-11-16T11:40:30.712Z,5.60
2022-11-16T11:41:49.664Z,5.85
2022-11-16T11:42:58.117Z,5.62
2022-11-16T11:44:17.102Z,5.92
2022-11-16T11:45:23.198Z,6.08
2022-11-16T11:46:47.539Z,5.33
2022-11-16T11:48:02.753Z,5.30
2022-11-16T11:49:23.473Z,5.75
2022-11-16T11:50:48.008Z,7.81
2022-11-16T11:51:54.150Z,6.94
2022-11-16T11:53:17.214Z,13.12
2022-11-16T11:54:45.633Z,16.68
2022-11-16T11:55:58.143Z,19.80
2022-11-16T11:57:04.598Z,17.11
2022-11-16T11:58:16.146Z,27.58
2022-11-16T11:59:23.813Z,95.52
2022-11-16T12:00:26.181Z,98.36
2022-11-16T12:01:56.063Z,56.03
2022-11-16T12:03:33.583Z,43.97
2022-11-16T12:05:00.268Z,27.19
2022-11-16T12:06:29.728Z,19.01
2022-11-16T12:07:40.255Z,8.39
2022-11-16T12:08:58.461Z,15.01
2022-11-16T12:10:18.788Z,22.70
2022-11-16T12:11:42.139Z,22.12
2022-11-16T12:13:01.590Z,10.72
2022-11-16T12:14:44.913Z,8.25
2022-11-16T12:15:58.505Z,9.34
2022-11-16T12:17:27.680Z,7.92
2022-11-16T12:19:16.984Z,5.25
2022-11-16T12:20:28.881Z,8.26
2022-11-16T12:21:41.215Z,7.59
2022-11-16T12:23:20.504Z,7.71
2022-11-16T12:24:50.143Z,5.85
2022-11-16T12:26:15.726Z,6.06
2022-11-16T12:27:41.112Z,5.04
2022-11-16T12:29:19.124Z,4.97
2022-11-16T12:30:23.736Z,4.77
2022-11-16T12:31:34.397Z,4.84
2022-11-16T12:33:02.032Z,4.47
2022-11-16T12:34:18.137Z,4.92
2022-11-16T12:35:44.478Z,4.53
2022-11-16T12:37:08.882Z,4.48
2022-11-16T12:38:10.481Z,4.37
2022-11-16T12:39:12.186Z,4.18
2022-11-16T12:40:35.360Z,3.99
2022-11-16T12:42:04.449Z,4.23
2022-11-16T12:43:53.364Z,4.55
2022-11-16T12:45:19.469Z,4.29
2022-11-16T12:46:39.357Z,5.52
2022-11-16T12:48:13.453Z,4.97
2022-11-16T12:49:48.725Z,4.79
2022-11-16T12:51:02.520Z,5.10
2022-11-16T12:52:15.204Z,6.44
2022-11-16T12:53:54.564Z,6.24
2022-11-16T12:55:24.940Z,6.15
2022-11-16T12:56:48.860Z,5.96
2022-11-16T12:58:10.363Z,5.44
2022-11-16T12:59:38.610Z,6.00
2022-11-16T13:01:17.322Z,5.46
2022-11-16T13:02:27.963Z,6.59
2022-11-16T13:03:37.838Z,7.99
2022-11-16T13:04:50.596Z,7.24
2022-11-16T13:06:04.517Z,5.38
2022-11-16T13:07:18.597Z,7.74
2022-11-16T13:08:34.130Z,7.67
2022-11-16T13:09:45.973Z,5.74
2022-11-16T13:11:02.042Z,5.01
2022-11-16T13:12:14.195Z,5.46
2022-11-16T13:13:36.421Z,5.24
2022-11-16T13:14:43.068Z,4.39
2022-11-16T13:15:47.811Z,3.79
2022-11-16T13:16:51.349Z,4.16
2022-11-16T13:18:01.692Z,4.03
2022-11-16T13:19:07.316Z,5.60
2022-11-16T13:20:31.651Z,4.61
2022-11-16T13:21:57.154Z,5.41
2022-11-16T13:23:08.020Z,5.71
2022-11-16T13:24:20.272Z,4.74
2022-11-16T13:25:33.986Z,4.30
2022-11-16T13:27:11.984Z,4.28
2022-11-16T13:28:29.375Z,4.80
2022-11-16T13:29:48.084Z,5.64
2022-11-16T13:31:31.609Z,5.68
2022-11-16T13:32:34.804Z,4.92
2022-11-16T13:33:51.029Z,4.20
2022-11-16T13:34:54.599Z,3.68
2022-11-16T13:35:56.831Z,3.72
2022-11-16T13:36:58.648Z,3.94
2022-11-16T13:38:01.115Z,4.54
2022-11-16T13:39:05.459Z,4.19
2022-11-16T13:40:07.096Z,3.85
2022-11-16T13:41:28.494Z,4.34
2022-11-16T13:42:34.141Z,3.88
2022-11-16T13:43:35.937Z,3.69
2022-11-16T13:44:38.014Z,3.96
2022-11-16T13:45:57.484Z,3.96
2022-11-16T13:47:05.882Z,3.31
2022-11-16T13:48:19.872Z,3.22
2022-11-16T13:49:24.250Z,2.99
2022-11-16T13:50:38.135Z,3.14
2022-11-16T13:51:39.998Z,3.87
2022-11-16T13:53:36.465Z,3.05
2022-11-16T13:55:43.138Z,3.02
2022-11-16T13:56:51.469Z,3.02
2022-11-16T13:57:57.299Z,3.06
2022-11-16T13:58:59.434Z,2.93
2022-11-16T14:00:01.111Z,4.22
2022-11-16T14:01:10.710Z,4.38
2022-11-16T14:02:39.821Z,4.31
2022-11-16T14:03:44.147Z,4.10
2022-11-16T14:04:57.843Z,4.52
2022-11-16T14:05:59.589Z,4.27
2022-11-16T14:07:01.852Z,3.32
2022-11-16T14:08:38.408Z,3.43
2022-11-16T14:09:42.677Z,4.76
2022-11-16T14:10:44.798Z,7.71
2022-11-16T14:11:46.589Z,8.57
2022-11-16T14:12:52.696Z,6.82
2022-11-16T14:13:55.223Z,5.06
2022-11-16T14:15:19.402Z,4.05
2022-11-16T14:16:21.530Z,4.22
2022-11-16T14:17:51.158Z,4.20
2022-11-16T14:18:54.835Z,4.36
2022-11-16T14:19:56.936Z,4.24
2022-11-16T14:21:12.248Z,3.79
2022-11-16T14:22:25.569Z,3.79
2022-11-16T14:23:50.537Z,3.84
2022-11-16T14:25:09.031Z,3.82
2022-11-16T14:26:36.141Z,3.79
2022-11-16T14:27:55.743Z,3.90
2022-11-16T14:29:23.222Z,3.58
2022-11-16T14:30:35.577Z,3.92
2022-11-16T14:31:52.306Z,4.65
2022-11-16T14:32:57.365Z,4.50
2022-11-16T14:34:00.911Z,4.67
2022-11-16T14:35:06.641Z,5.04
2022-11-16T14:36:10.826Z,5.00
2022-11-16T14:37:30.247Z,5.39
2022-11-16T14:38:36.641Z,4.91
2022-11-16T14:39:43.537Z,5.00
2022-11-16T14:40:57.795Z,5.20
2022-11-16T14:42:05.920Z,5.04
2022-11-16T14:43:38.645Z,5.13
2022-11-16T14:44:40.864Z,5.68
2022-11-16T14:45:52.050Z,5.97
2022-11-16T14:46:54.309Z,5.86
2022-11-16T14:48:04.352Z,4.96
2022-11-16T14:49:16.105Z,4.96
2022-11-16T14:50:22.993Z,4.55
2022-11-16T14:51:34.922Z,5.16
2022-11-16T14:52:44.470Z,7.96
2022-11-16T14:53:52.674Z,8.50
2022-11-16T14:55:00.644Z,8.56
2022-11-16T14:56:08.307Z,8.45
2022-11-16T14:57:21.672Z,8.06
2022-11-16T14:58:24.376Z,5.84
2022-11-16T14:59:26.755Z,6.28
2022-11-16T15:00:30.257Z,8.13
2022-11-16T15:01:39.246Z,8.15
2022-11-16T15:02:41.238Z,7.31
2022-11-16T15:03:54.314Z,6.95
2022-11-16T15:04:56.156Z,7.87
2022-11-16T15:06:03.301Z,7.11
2022-11-16T15:07:06.330Z,7.27
2022-11-16T15:08:21.048Z,6.98
2022-11-16T15:09:29.293Z,7.46
2022-11-16T15:10:31.133Z,6.80
2022-11-16T15:11:59.041Z,7.10
2022-11-16T15:13:00.978Z,6.03